sensor_id;sensor_type;location;lat;lon;timestamp;temperature;humidity
68257;DHT22;55069;51.568;4.656;2022-09-09T00:02:01;14.15;93.03
68257;DHT22;55069;51.568;4.656;2022-09-09T00:04:32;14.14;93.11
68257;DHT22;55069;51.568;4.656;2022-09-09T00:07:18;14.09;92.99
68257;DHT22;55069;51.568;4.656;2022-09-09T00:15:11;14.08;93.33
68257;DHT22;55069;51.568;4.656;2022-09-09T00:17:57;14.05;93.71
68257;DHT22;55069;51.568;4.656;2022-09-09T00:20:32;14.04;93.58
68257;DHT22;55069;51.568;4.656;2022-09-09T00:25:42;14.11;93.83
68257;DHT22;55069;51.568;4.656;2022-09-09T00:28:23;14.11;93.90
68257;DHT22;55069;51.568;4.656;2022-09-09T00:30:50;14.16;93.66
68257;DHT22;55069;51.568;4.656;2022-09-09T00:33:20;14.18;93.84
68257;DHT22;55069;51.568;4.656;2022-09-09T00:35:54;14.15;93.91
68257;DHT22;55069;51.568;4.656;2022-09-09T00:38:34;14.16;93.99
68257;DHT22;55069;51.568;4.656;2022-09-09T00:46:55;14.16;93.62
68257;DHT22;55069;51.568;4.656;2022-09-09T00:58:09;14.16;93.97
68257;DHT22;55069;51.568;4.656;2022-09-09T01:00:42;14.14;93.71
68257;DHT22;55069;51.568;4.656;2022-09-09T01:05:46;14.16;93.42
68257;DHT22;55069;51.568;4.656;2022-09-09T01:11:10;14.21;93.50
68257;DHT22;55069;51.568;4.656;2022-09-09T01:13:38;14.21;93.26
68257;DHT22;55069;51.568;4.656;2022-09-09T01:16:10;14.18;93.45
68257;DHT22;55069;51.568;4.656;2022-09-09T01:18:44;14.14;93.27
68257;DHT22;55069;51.568;4.656;2022-09-09T01:21:35;14.11;93.30
68257;DHT22;55069;51.568;4.656;2022-09-09T01:26:56;14.02;93.57
68257;DHT22;55069;51.568;4.656;2022-09-09T01:29:25;13.97;93.41
68257;DHT22;55069;51.568;4.656;2022-09-09T01:31:58;13.97;93.62
68257;DHT22;55069;51.568;4.656;2022-09-09T01:34:36;13.97;93.62
68257;DHT22;55069;51.568;4.656;2022-09-09T01:37:06;13.98;93.70
68257;DHT22;55069;51.568;4.656;2022-09-09T01:39:34;13.92;93.63
68257;DHT22;55069;51.568;4.656;2022-09-09T01:42:05;13.91;93.46
68257;DHT22;55069;51.568;4.656;2022-09-09T01:44:32;13.89;93.81
68257;DHT22;55069;51.568;4.656;2022-09-09T01:46:59;13.92;93.87
68257;DHT22;55069;51.568;4.656;2022-09-09T01:49:25;13.94;93.66
68257;DHT22;55069;51.568;4.656;2022-09-09T01:51:53;13.94;93.91
68257;DHT22;55069;51.568;4.656;2022-09-09T01:54:27;13.95;93.97
68257;DHT22;55069;51.568;4.656;2022-09-09T01:57:22;13.87;93.53
68257;DHT22;55069;51.568;4.656;2022-09-09T02:00:08;13.79;93.61
68257;DHT22;55069;51.568;4.656;2022-09-09T02:02:49;13.78;93.60
68257;DHT22;55069;51.568;4.656;2022-09-09T02:05:38;13.77;93.79
68257;DHT22;55069;51.568;4.656;2022-09-09T02:08:20;13.75;93.63
68257;DHT22;55069;51.568;4.656;2022-09-09T02:11:01;13.68;93.35
68257;DHT22;55069;51.568;4.656;2022-09-09T02:13:51;13.71;93.35
68257;DHT22;55069;51.568;4.656;2022-09-09T02:16:30;13.73;93.40
68257;DHT22;55069;51.568;4.656;2022-09-09T02:19:28;13.71;93.51
68257;DHT22;55069;51.568;4.656;2022-09-09T02:22:05;13.68;93.49
68257;DHT22;55069;51.568;4.656;2022-09-09T02:24:34;13.73;93.68
68257;DHT22;55069;51.568;4.656;2022-09-09T02:27:16;13.73;93.53
68257;DHT22;55069;51.568;4.656;2022-09-09T02:29:43;13.68;93.77
68257;DHT22;55069;51.568;4.656;2022-09-09T02:32:16;13.66;93.63
68257;DHT22;55069;51.568;4.656;2022-09-09T02:34:47;13.68;93.91
68257;DHT22;55069;51.568;4.656;2022-09-09T02:37:15;13.63;94.03
68257;DHT22;55069;51.568;4.656;2022-09-09T02:39:46;13.67;93.90
68257;DHT22;55069;51.568;4.656;2022-09-09T02:42:15;13.73;94.02
68257;DHT22;55069;51.568;4.656;2022-09-09T02:44:41;13.63;93.67
68257;DHT22;55069;51.568;4.656;2022-09-09T02:47:25;13.67;93.88
68257;DHT22;55069;51.568;4.656;2022-09-09T02:53:09;13.58;93.90
68257;DHT22;55069;51.568;4.656;2022-09-09T02:55:46;13.63;93.88
68257;DHT22;55069;51.568;4.656;2022-09-09T02:58:17;13.54;94.35
68257;DHT22;55069;51.568;4.656;2022-09-09T03:00:51;13.53;94.53
68257;DHT22;55069;51.568;4.656;2022-09-09T03:03:18;13.53;94.51
68257;DHT22;55069;51.568;4.656;2022-09-09T03:05:47;13.50;94.83
68257;DHT22;55069;51.568;4.656;2022-09-09T03:08:13;13.51;94.77
68257;DHT22;55069;51.568;4.656;2022-09-09T03:10:39;13.50;94.70
68257;DHT22;55069;51.568;4.656;2022-09-09T03:13:05;13.50;94.64
68257;DHT22;55069;51.568;4.656;2022-09-09T03:15:35;13.53;94.89
68257;DHT22;55069;51.568;4.656;2022-09-09T03:18:01;13.53;94.88
68257;DHT22;55069;51.568;4.656;2022-09-09T03:20:28;13.46;94.90
68257;DHT22;55069;51.568;4.656;2022-09-09T03:22:55;13.44;94.69
68257;DHT22;55069;51.568;4.656;2022-09-09T03:25:21;13.42;95.05
68257;DHT22;55069;51.568;4.656;2022-09-09T03:27:50;13.36;95.08
68257;DHT22;55069;51.568;4.656;2022-09-09T03:30:24;13.40;95.14
68257;DHT22;55069;51.568;4.656;2022-09-09T03:32:50;13.36;95.15
68257;DHT22;55069;51.568;4.656;2022-09-09T03:35:16;13.42;95.08
68257;DHT22;55069;51.568;4.656;2022-09-09T03:37:42;13.44;95.39
68257;DHT22;55069;51.568;4.656;2022-09-09T03:40:10;13.39;95.32
68257;DHT22;55069;51.568;4.656;2022-09-09T03:42:36;13.44;95.48
68257;DHT22;55069;51.568;4.656;2022-09-09T03:45:07;13.40;95.45
68257;DHT22;55069;51.568;4.656;2022-09-09T03:47:35;13.43;95.47
68257;DHT22;55069;51.568;4.656;2022-09-09T03:50:05;13.46;95.39
68257;DHT22;55069;51.568;4.656;2022-09-09T03:52:40;13.47;95.42
68257;DHT22;55069;51.568;4.656;2022-09-09T03:55:12;13.46;95.71
68257;DHT22;55069;51.568;4.656;2022-09-09T03:57:37;13.39;95.09
68257;DHT22;55069;51.568;4.656;2022-09-09T04:00:07;13.43;95.44
68257;DHT22;55069;51.568;4.656;2022-09-09T04:02:41;13.46;95.41
68257;DHT22;55069;51.568;4.656;2022-09-09T04:05:09;13.47;95.47
68257;DHT22;55069;51.568;4.656;2022-09-09T04:07:36;13.53;95.66
68257;DHT22;55069;51.568;4.656;2022-09-09T04:10:02;13.54;95.48
68257;DHT22;55069;51.568;4.656;2022-09-09T04:12:28;13.60;95.69
68257;DHT22;55069;51.568;4.656;2022-09-09T04:14:54;13.58;95.47
68257;DHT22;55069;51.568;4.656;2022-09-09T04:17:20;13.70;95.81
68257;DHT22;55069;51.568;4.656;2022-09-09T04:19:45;13.74;95.71
68257;DHT22;55069;51.568;4.656;2022-09-09T04:22:12;13.88;95.68
68257;DHT22;55069;51.568;4.656;2022-09-09T04:24:37;13.89;95.40
68257;DHT22;55069;51.568;4.656;2022-09-09T04:27:03;13.91;95.03
68257;DHT22;55069;51.568;4.656;2022-09-09T04:29:30;13.94;95.09
68257;DHT22;55069;51.568;4.656;2022-09-09T04:31:56;13.87;95.26
68257;DHT22;55069;51.568;4.656;2022-09-09T04:34:21;13.81;95.07
68257;DHT22;55069;51.568;4.656;2022-09-09T04:36:47;13.75;95.07
68257;DHT22;55069;51.568;4.656;2022-09-09T04:39:13;13.75;95.31
68257;DHT22;55069;51.568;4.656;2022-09-09T04:41:38;13.71;95.40
68257;DHT22;55069;51.568;4.656;2022-09-09T04:44:04;13.73;95.33
68257;DHT22;55069;51.568;4.656;2022-09-09T04:46:31;13.71;95.69
68257;DHT22;55069;51.568;4.656;2022-09-09T04:49:00;13.75;95.85
68257;DHT22;55069;51.568;4.656;2022-09-09T04:51:29;13.74;95.79
68257;DHT22;55069;51.568;4.656;2022-09-09T04:53:57;13.78;95.80
68257;DHT22;55069;51.568;4.656;2022-09-09T04:56:22;13.75;95.72
68257;DHT22;55069;51.568;4.656;2022-09-09T04:58:54;13.84;95.71
68257;DHT22;55069;51.568;4.656;2022-09-09T05:01:23;13.79;95.74
68257;DHT22;55069;51.568;4.656;2022-09-09T05:03:51;13.74;95.51
68257;DHT22;55069;51.568;4.656;2022-09-09T05:06:21;13.73;95.75
68257;DHT22;55069;51.568;4.656;2022-09-09T05:08:50;13.77;95.94
68257;DHT22;55069;51.568;4.656;2022-09-09T05:11:22;13.82;96.07
68257;DHT22;55069;51.568;4.656;2022-09-09T05:13:54;13.79;96.03
68257;DHT22;55069;51.568;4.656;2022-09-09T05:16:20;13.75;95.79
68257;DHT22;55069;51.568;4.656;2022-09-09T05:18:46;13.82;95.80
68257;DHT22;55069;51.568;4.656;2022-09-09T05:21:13;13.85;95.97
68257;DHT22;55069;51.568;4.656;2022-09-09T05:23:39;13.82;95.81
68257;DHT22;55069;51.568;4.656;2022-09-09T05:26:07;13.82;95.95
68257;DHT22;55069;51.568;4.656;2022-09-09T05:28:34;13.88;95.84
68257;DHT22;55069;51.568;4.656;2022-09-09T05:31:05;13.88;96.01
68257;DHT22;55069;51.568;4.656;2022-09-09T05:33:34;13.82;95.74
68257;DHT22;55069;51.568;4.656;2022-09-09T05:36:05;13.82;95.92
68257;DHT22;55069;51.568;4.656;2022-09-09T05:38:32;13.85;96.04
68257;DHT22;55069;51.568;4.656;2022-09-09T05:40:59;13.91;96.02
68257;DHT22;55069;51.568;4.656;2022-09-09T05:43:26;13.92;95.86
68257;DHT22;55069;51.568;4.656;2022-09-09T05:48:38;14.08;95.47
68257;DHT22;55069;51.568;4.656;2022-09-09T05:51:05;14.15;95.55
68257;DHT22;55069;51.568;4.656;2022-09-09T05:53:34;14.29;95.51
68257;DHT22;55069;51.568;4.656;2022-09-09T05:56:02;14.40;94.94
68257;DHT22;55069;51.568;4.656;2022-09-09T05:58:34;14.50;94.77
68257;DHT22;55069;51.568;4.656;2022-09-09T06:01:08;14.59;94.64
68257;DHT22;55069;51.568;4.656;2022-09-09T06:03:39;14.71;94.25
68257;DHT22;55069;51.568;4.656;2022-09-09T06:06:07;14.80;93.88
68257;DHT22;55069;51.568;4.656;2022-09-09T06:08:35;14.80;93.57
68257;DHT22;55069;51.568;4.656;2022-09-09T06:11:12;14.83;93.37
68257;DHT22;55069;51.568;4.656;2022-09-09T06:13:38;14.85;93.53
68257;DHT22;55069;51.568;4.656;2022-09-09T06:16:13;15.01;93.51
68257;DHT22;55069;51.568;4.656;2022-09-09T06:18:40;15.07;92.90
68257;DHT22;55069;51.568;4.656;2022-09-09T06:21:09;15.14;92.79
68257;DHT22;55069;51.568;4.656;2022-09-09T06:23:36;15.27;92.66
68257;DHT22;55069;51.568;4.656;2022-09-09T06:26:13;15.38;92.44
68257;DHT22;55069;51.568;4.656;2022-09-09T06:28:39;15.45;92.07
68257;DHT22;55069;51.568;4.656;2022-09-09T06:31:09;15.49;91.69
68257;DHT22;55069;51.568;4.656;2022-09-09T06:33:37;15.56;91.57
68257;DHT22;55069;51.568;4.656;2022-09-09T06:36:18;15.56;91.23
68257;DHT22;55069;51.568;4.656;2022-09-09T06:38:44;15.60;91.33
68257;DHT22;55069;51.568;4.656;2022-09-09T06:41:14;15.66;90.95
68257;DHT22;55069;51.568;4.656;2022-09-09T06:43:41;15.79;90.89
68257;DHT22;55069;51.568;4.656;2022-09-09T06:46:13;15.87;90.69
68257;DHT22;55069;51.568;4.656;2022-09-09T06:48:39;15.98;90.31
68257;DHT22;55069;51.568;4.656;2022-09-09T06:51:21;16.17;90.18
68257;DHT22;55069;51.568;4.656;2022-09-09T06:53:50;16.34;89.60
68257;DHT22;55069;51.568;4.656;2022-09-09T06:56:17;16.31;88.95
68257;DHT22;55069;51.568;4.656;2022-09-09T06:58:44;16.21;88.99
68257;DHT22;55069;51.568;4.656;2022-09-09T07:01:16;16.10;89.41
68257;DHT22;55069;51.568;4.656;2022-09-09T07:03:44;16.04;89.37
68257;DHT22;55069;51.568;4.656;2022-09-09T07:06:33;15.97;89.61
68257;DHT22;55069;51.568;4.656;2022-09-09T07:09:05;15.97;90.17
68257;DHT22;55069;51.568;4.656;2022-09-09T07:11:34;15.84;90.35
68257;DHT22;55069;51.568;4.656;2022-09-09T07:14:02;15.71;90.30
68257;DHT22;55069;51.568;4.656;2022-09-09T07:16:28;15.70;90.45
68257;DHT22;55069;51.568;4.656;2022-09-09T07:18:57;15.70;90.48
68257;DHT22;55069;51.568;4.656;2022-09-09T07:21:28;15.70;90.49
68257;DHT22;55069;51.568;4.656;2022-09-09T07:23:54;15.73;90.40
68257;DHT22;55069;51.568;4.656;2022-09-09T07:26:21;15.71;90.55
68257;DHT22;55069;51.568;4.656;2022-09-09T07:28:48;15.74;89.88
68257;DHT22;55069;51.568;4.656;2022-09-09T07:31:15;15.77;90.11
68257;DHT22;55069;51.568;4.656;2022-09-09T07:33:43;15.86;90.12
68257;DHT22;55069;51.568;4.656;2022-09-09T07:36:21;15.89;89.95
68257;DHT22;55069;51.568;4.656;2022-09-09T07:38:52;15.87;89.70
68257;DHT22;55069;51.568;4.656;2022-09-09T07:43:50;16.07;89.34
68257;DHT22;55069;51.568;4.656;2022-09-09T07:46:18;16.14;89.17
68257;DHT22;55069;51.568;4.656;2022-09-09T07:48:45;16.21;89.02
68257;DHT22;55069;51.568;4.656;2022-09-09T07:51:14;16.26;88.58
68257;DHT22;55069;51.568;4.656;2022-09-09T07:53:43;16.42;88.52
68257;DHT22;55069;51.568;4.656;2022-09-09T07:56:11;16.61;87.65
68257;DHT22;55069;51.568;4.656;2022-09-09T07:58:40;16.65;86.80
68257;DHT22;55069;51.568;4.656;2022-09-09T08:01:14;16.77;86.66
68257;DHT22;55069;51.568;4.656;2022-09-09T08:03:39;16.66;86.86
68257;DHT22;55069;51.568;4.656;2022-09-09T08:06:07;16.58;86.84
68257;DHT22;55069;51.568;4.656;2022-09-09T08:08:35;16.55;87.44
68257;DHT22;55069;51.568;4.656;2022-09-09T08:11:14;16.48;88.03
68257;DHT22;55069;51.568;4.656;2022-09-09T08:13:43;16.49;88.29
68257;DHT22;55069;51.568;4.656;2022-09-09T08:16:13;16.52;87.61
68257;DHT22;55069;51.568;4.656;2022-09-09T08:18:40;16.61;87.34
68257;DHT22;55069;51.568;4.656;2022-09-09T08:21:11;16.77;87.40
68257;DHT22;55069;51.568;4.656;2022-09-09T08:23:39;16.77;87.14
68257;DHT22;55069;51.568;4.656;2022-09-09T08:26:12;16.73;87.67
68257;DHT22;55069;51.568;4.656;2022-09-09T08:28:39;16.76;86.82
68257;DHT22;55069;51.568;4.656;2022-09-09T08:31:10;16.76;87.06
68257;DHT22;55069;51.568;4.656;2022-09-09T08:33:36;16.89;86.67
68257;DHT22;55069;51.568;4.656;2022-09-09T08:36:06;16.84;87.00
68257;DHT22;55069;51.568;4.656;2022-09-09T08:38:32;16.84;86.61
68257;DHT22;55069;51.568;4.656;2022-09-09T08:41:11;16.87;86.88
68257;DHT22;55069;51.568;4.656;2022-09-09T08:43:41;16.90;87.05
68257;DHT22;55069;51.568;4.656;2022-09-09T08:46:21;16.72;86.82
68257;DHT22;55069;51.568;4.656;2022-09-09T08:49:10;16.63;86.44
68257;DHT22;55069;51.568;4.656;2022-09-09T08:51:40;16.62;86.95
68257;DHT22;55069;51.568;4.656;2022-09-09T08:54:08;16.55;86.92
68257;DHT22;55069;51.568;4.656;2022-09-09T08:56:35;16.49;86.43
68257;DHT22;55069;51.568;4.656;2022-09-09T08:59:03;16.44;86.96
68257;DHT22;55069;51.568;4.656;2022-09-09T09:02:11;16.58;86.78
68257;DHT22;55069;51.568;4.656;2022-09-09T09:05:02;16.62;86.69
68257;DHT22;55069;51.568;4.656;2022-09-09T09:12:53;16.62;85.91
68257;DHT22;55069;51.568;4.656;2022-09-09T09:15:25;16.69;85.83
68257;DHT22;55069;51.568;4.656;2022-09-09T09:17:53;16.73;85.89
68257;DHT22;55069;51.568;4.656;2022-09-09T09:20:32;16.72;85.63
68257;DHT22;55069;51.568;4.656;2022-09-09T09:23:05;16.80;85.37
68257;DHT22;55069;51.568;4.656;2022-09-09T09:25:39;16.83;85.88
68257;DHT22;55069;51.568;4.656;2022-09-09T09:28:17;16.89;86.41
68257;DHT22;55069;51.568;4.656;2022-09-09T09:30:50;16.96;86.70
68257;DHT22;55069;51.568;4.656;2022-09-09T09:35:52;17.02;86.91
68257;DHT22;55069;51.568;4.656;2022-09-09T09:38:23;17.09;86.75
68257;DHT22;55069;51.568;4.656;2022-09-09T09:40:53;17.14;86.27
68257;DHT22;55069;51.568;4.656;2022-09-09T09:43:29;17.30;86.33
68257;DHT22;55069;51.568;4.656;2022-09-09T09:45:58;17.32;85.89
68257;DHT22;55069;51.568;4.656;2022-09-09T09:48:26;17.35;85.65
68257;DHT22;55069;51.568;4.656;2022-09-09T09:53:30;17.54;85.92
68257;DHT22;55069;51.568;4.656;2022-09-09T09:56:10;17.39;85.90
68257;DHT22;55069;51.568;4.656;2022-09-09T10:01:25;17.11;86.55
68257;DHT22;55069;51.568;4.656;2022-09-09T10:03:57;17.06;86.90
68257;DHT22;55069;51.568;4.656;2022-09-09T10:06:31;17.00;86.81
68257;DHT22;55069;51.568;4.656;2022-09-09T10:08:59;17.02;87.10
68257;DHT22;55069;51.568;4.656;2022-09-09T10:14:24;17.07;86.84
68257;DHT22;55069;51.568;4.656;2022-09-09T10:19:42;16.91;87.86
68257;DHT22;55069;51.568;4.656;2022-09-09T10:22:27;16.90;88.05
68257;DHT22;55069;51.568;4.656;2022-09-09T10:30:23;16.68;89.38
68257;DHT22;55069;51.568;4.656;2022-09-09T10:33:02;16.65;89.86
68257;DHT22;55069;51.568;4.656;2022-09-09T10:35:58;16.61;89.77
68257;DHT22;55069;51.568;4.656;2022-09-09T10:47:01;16.59;90.20
68257;DHT22;55069;51.568;4.656;2022-09-09T10:52:16;16.55;90.46
68257;DHT22;55069;51.568;4.656;2022-09-09T10:57:29;16.76;90.36
68257;DHT22;55069;51.568;4.656;2022-09-09T11:00:02;17.00;89.49
68257;DHT22;55069;51.568;4.656;2022-09-09T11:02:32;17.16;88.51
68257;DHT22;55069;51.568;4.656;2022-09-09T11:05:03;17.16;88.74
68257;DHT22;55069;51.568;4.656;2022-09-09T11:10:17;17.28;88.33
68257;DHT22;55069;51.568;4.656;2022-09-09T11:12:45;17.62;87.63
68257;DHT22;55069;51.568;4.656;2022-09-09T11:15:34;17.92;86.43
68257;DHT22;55069;51.568;4.656;2022-09-09T11:18:04;18.09;85.98
68257;DHT22;55069;51.568;4.656;2022-09-09T11:20:30;18.14;86.25
68257;DHT22;55069;51.568;4.656;2022-09-09T11:23:15;17.96;85.89
68257;DHT22;55069;51.568;4.656;2022-09-09T11:25:48;17.86;86.42
68257;DHT22;55069;51.568;4.656;2022-09-09T11:34:17;17.51;87.77
68257;DHT22;55069;51.568;4.656;2022-09-09T11:44:38;17.71;86.49
68257;DHT22;55069;51.568;4.656;2022-09-09T11:47:26;17.75;86.34
68257;DHT22;55069;51.568;4.656;2022-09-09T11:52:43;18.00;85.68
68257;DHT22;55069;51.568;4.656;2022-09-09T11:55:30;18.12;84.97
68257;DHT22;55069;51.568;4.656;2022-09-09T11:58:05;18.29;85.10
68257;DHT22;55069;51.568;4.656;2022-09-09T12:00:42;18.41;84.87
68257;DHT22;55069;51.568;4.656;2022-09-09T12:05:53;18.47;83.50
68257;DHT22;55069;51.568;4.656;2022-09-09T12:08:27;18.60;83.67
68257;DHT22;55069;51.568;4.656;2022-09-09T12:10:58;18.73;82.27
68257;DHT22;55069;51.568;4.656;2022-09-09T12:13:26;18.78;81.65
68257;DHT22;55069;51.568;4.656;2022-09-09T12:15:54;18.94;81.47
68257;DHT22;55069;51.568;4.656;2022-09-09T12:18:34;18.96;81.68
68257;DHT22;55069;51.568;4.656;2022-09-09T12:21:40;19.03;79.94
68257;DHT22;55069;51.568;4.656;2022-09-09T12:24:11;18.98;81.30
68257;DHT22;55069;51.568;4.656;2022-09-09T12:31:56;18.92;80.74
68257;DHT22;55069;51.568;4.656;2022-09-09T12:34:43;18.99;80.61
68257;DHT22;55069;51.568;4.656;2022-09-09T12:39:56;19.13;80.00
68257;DHT22;55069;51.568;4.656;2022-09-09T12:42:23;19.40;79.62
68257;DHT22;55069;51.568;4.656;2022-09-09T12:45:03;19.73;78.87
68257;DHT22;55069;51.568;4.656;2022-09-09T12:47:42;19.58;76.67
68257;DHT22;55069;51.568;4.656;2022-09-09T12:50:23;19.78;78.29
68257;DHT22;55069;51.568;4.656;2022-09-09T12:52:53;19.73;77.88
68257;DHT22;55069;51.568;4.656;2022-09-09T12:55:27;19.92;77.74
68257;DHT22;55069;51.568;4.656;2022-09-09T12:57:54;19.94;76.04
68257;DHT22;55069;51.568;4.656;2022-09-09T13:00:23;19.86;77.34
68257;DHT22;55069;51.568;4.656;2022-09-09T13:03:17;19.78;78.40
68257;DHT22;55069;51.568;4.656;2022-09-09T13:05:42;19.47;77.02
68257;DHT22;55069;51.568;4.656;2022-09-09T13:08:10;19.33;76.67
68257;DHT22;55069;51.568;4.656;2022-09-09T13:10:44;19.39;77.07
68257;DHT22;55069;51.568;4.656;2022-09-09T13:13:14;19.37;77.22
68257;DHT22;55069;51.568;4.656;2022-09-09T13:15:49;19.36;77.65
68257;DHT22;55069;51.568;4.656;2022-09-09T13:18:22;19.47;78.03
68257;DHT22;55069;51.568;4.656;2022-09-09T13:20:49;19.57;77.36
68257;DHT22;55069;51.568;4.656;2022-09-09T13:23:16;19.67;76.38
68257;DHT22;55069;51.568;4.656;2022-09-09T13:25:59;19.82;76.58
68257;DHT22;55069;51.568;4.656;2022-09-09T13:28:28;19.94;76.44
68257;DHT22;55069;51.568;4.656;2022-09-09T13:31:05;19.82;76.29
68257;DHT22;55069;51.568;4.656;2022-09-09T13:33:38;19.51;77.22
68257;DHT22;55069;51.568;4.656;2022-09-09T13:36:09;19.51;77.47
68257;DHT22;55069;51.568;4.656;2022-09-09T13:38:38;19.24;76.73
68257;DHT22;55069;51.568;4.656;2022-09-09T13:41:08;19.26;77.97
68257;DHT22;55069;51.568;4.656;2022-09-09T13:43:38;19.36;79.28
68257;DHT22;55069;51.568;4.656;2022-09-09T13:46:30;18.99;79.48
68257;DHT22;55069;51.568;4.656;2022-09-09T13:51:37;18.91;80.16
68257;DHT22;55069;51.568;4.656;2022-09-09T13:54:06;18.85;80.09
68257;DHT22;55069;51.568;4.656;2022-09-09T13:56:35;18.72;79.51
68257;DHT22;55069;51.568;4.656;2022-09-09T13:59:02;18.91;79.60
68257;DHT22;55069;51.568;4.656;2022-09-09T14:01:27;18.85;79.89
68257;DHT22;55069;51.568;4.656;2022-09-09T14:03:53;18.73;80.52
68257;DHT22;55069;51.568;4.656;2022-09-09T14:06:19;18.60;80.24
68257;DHT22;55069;51.568;4.656;2022-09-09T14:08:48;18.72;81.13
68257;DHT22;55069;51.568;4.656;2022-09-09T14:11:15;18.62;79.61
68257;DHT22;55069;51.568;4.656;2022-09-09T14:13:40;18.71;81.09
68257;DHT22;55069;51.568;4.656;2022-09-09T14:16:06;18.64;80.47
68257;DHT22;55069;51.568;4.656;2022-09-09T14:18:31;18.57;81.25
68257;DHT22;55069;51.568;4.656;2022-09-09T14:20:57;18.55;82.56
68257;DHT22;55069;51.568;4.656;2022-09-09T14:23:23;18.54;82.62
68257;DHT22;55069;51.568;4.656;2022-09-09T14:25:49;18.64;82.82
68257;DHT22;55069;51.568;4.656;2022-09-09T14:28:15;18.51;82.05
68257;DHT22;55069;51.568;4.656;2022-09-09T14:30:41;18.57;82.40
68257;DHT22;55069;51.568;4.656;2022-09-09T14:33:09;18.52;81.96
68257;DHT22;55069;51.568;4.656;2022-09-09T14:35:35;18.69;82.61
68257;DHT22;55069;51.568;4.656;2022-09-09T14:38:02;18.73;82.08
68257;DHT22;55069;51.568;4.656;2022-09-09T14:40:28;18.95;82.07
68257;DHT22;55069;51.568;4.656;2022-09-09T14:42:53;19.24;81.35
68257;DHT22;55069;51.568;4.656;2022-09-09T14:45:19;19.45;80.51
68257;DHT22;55069;51.568;4.656;2022-09-09T14:47:46;19.74;80.11
68257;DHT22;55069;51.568;4.656;2022-09-09T14:50:12;19.61;79.16
68257;DHT22;55069;51.568;4.656;2022-09-09T14:52:38;19.51;79.10
68257;DHT22;55069;51.568;4.656;2022-09-09T14:55:04;19.26;79.74
68257;DHT22;55069;51.568;4.656;2022-09-09T14:57:30;19.08;79.71
68257;DHT22;55069;51.568;4.656;2022-09-09T14:59:56;18.96;80.77
68257;DHT22;55069;51.568;4.656;2022-09-09T15:02:22;18.73;81.53
68257;DHT22;55069;51.568;4.656;2022-09-09T15:04:47;18.75;80.93
68257;DHT22;55069;51.568;4.656;2022-09-09T15:07:16;18.67;79.42
68257;DHT22;55069;51.568;4.656;2022-09-09T15:09:42;18.64;80.07
68257;DHT22;55069;51.568;4.656;2022-09-09T15:12:07;18.61;80.00
68257;DHT22;55069;51.568;4.656;2022-09-09T15:14:33;18.61;80.65
68257;DHT22;55069;51.568;4.656;2022-09-09T15:17:00;18.50;80.56
68257;DHT22;55069;51.568;4.656;2022-09-09T15:19:26;18.38;81.19
68257;DHT22;55069;51.568;4.656;2022-09-09T15:21:52;18.37;81.57
68257;DHT22;55069;51.568;4.656;2022-09-09T15:24:17;18.50;81.38
68257;DHT22;55069;51.568;4.656;2022-09-09T15:26:43;18.48;81.69
68257;DHT22;55069;51.568;4.656;2022-09-09T15:29:09;18.48;81.95
68257;DHT22;55069;51.568;4.656;2022-09-09T15:31:35;18.47;81.48
68257;DHT22;55069;51.568;4.656;2022-09-09T15:34:02;18.45;81.59
68257;DHT22;55069;51.568;4.656;2022-09-09T15:38:59;18.58;81.48
68257;DHT22;55069;51.568;4.656;2022-09-09T15:41:25;18.62;81.31
68257;DHT22;55069;51.568;4.656;2022-09-09T15:43:52;18.67;81.21
68257;DHT22;55069;51.568;4.656;2022-09-09T15:48:57;18.60;80.99
68257;DHT22;55069;51.568;4.656;2022-09-09T15:51:24;18.68;81.35
68257;DHT22;55069;51.568;4.656;2022-09-09T15:53:54;18.69;80.96
68257;DHT22;55069;51.568;4.656;2022-09-09T15:56:22;18.76;81.25
68257;DHT22;55069;51.568;4.656;2022-09-09T15:58:47;18.87;80.85
68257;DHT22;55069;51.568;4.656;2022-09-09T16:01:13;18.94;80.96
68257;DHT22;55069;51.568;4.656;2022-09-09T16:03:40;18.88;80.32
68257;DHT22;55069;51.568;4.656;2022-09-09T16:06:22;18.62;80.50
68257;DHT22;55069;51.568;4.656;2022-09-09T16:08:52;18.82;79.69
68257;DHT22;55069;51.568;4.656;2022-09-09T16:11:27;19.40;78.39
68257;DHT22;55069;51.568;4.656;2022-09-09T16:13:54;19.57;78.64
68257;DHT22;55069;51.568;4.656;2022-09-09T16:16:23;19.56;77.99
68257;DHT22;55069;51.568;4.656;2022-09-09T16:18:57;19.43;77.72
68257;DHT22;55069;51.568;4.656;2022-09-09T16:21:24;19.50;78.19
68257;DHT22;55069;51.568;4.656;2022-09-09T16:23:52;19.49;78.00
68257;DHT22;55069;51.568;4.656;2022-09-09T16:26:22;20.12;76.09
68257;DHT22;55069;51.568;4.656;2022-09-09T16:28:48;21.15;73.19
68257;DHT22;55069;51.568;4.656;2022-09-09T16:31:22;21.55;71.90
68257;DHT22;55069;51.568;4.656;2022-09-09T16:33:49;21.41;70.35
68257;DHT22;55069;51.568;4.656;2022-09-09T16:36:18;21.82;70.03
68257;DHT22;55069;51.568;4.656;2022-09-09T16:38:44;21.89;70.39
68257;DHT22;55069;51.568;4.656;2022-09-09T16:41:11;21.08;71.08
68257;DHT22;55069;51.568;4.656;2022-09-09T16:43:37;20.63;72.69
68257;DHT22;55069;51.568;4.656;2022-09-09T16:46:11;20.32;73.98
68257;DHT22;55069;51.568;4.656;2022-09-09T16:48:37;19.57;75.17
68257;DHT22;55069;51.568;4.656;2022-09-09T16:51:05;19.70;76.35
68257;DHT22;55069;51.568;4.656;2022-09-09T16:53:32;19.56;76.06
68257;DHT22;55069;51.568;4.656;2022-09-09T16:55:57;19.24;76.35
68257;DHT22;55069;51.568;4.656;2022-09-09T16:58:23;19.20;77.04
68257;DHT22;55069;51.568;4.656;2022-09-09T17:00:49;19.09;77.03
68257;DHT22;55069;51.568;4.656;2022-09-09T17:03:16;19.30;76.75
68257;DHT22;55069;51.568;4.656;2022-09-09T17:05:42;19.71;74.90
68257;DHT22;55069;51.568;4.656;2022-09-09T17:08:08;19.47;75.60
68257;DHT22;55069;51.568;4.656;2022-09-09T17:10:34;19.09;76.84
68257;DHT22;55069;51.568;4.656;2022-09-09T17:13:05;18.84;77.14
68257;DHT22;55069;51.568;4.656;2022-09-09T17:15:30;18.75;77.72
68257;DHT22;55069;51.568;4.656;2022-09-09T17:17:56;18.64;77.95
68257;DHT22;55069;51.568;4.656;2022-09-09T17:20:21;18.48;78.50
68257;DHT22;55069;51.568;4.656;2022-09-09T17:22:47;18.37;78.58
68257;DHT22;55069;51.568;4.656;2022-09-09T17:25:13;18.33;78.38
68257;DHT22;55069;51.568;4.656;2022-09-09T17:27:38;18.23;79.15
68257;DHT22;55069;51.568;4.656;2022-09-09T17:30:04;18.17;78.98
68257;DHT22;55069;51.568;4.656;2022-09-09T17:32:30;17.97;80.07
68257;DHT22;55069;51.568;4.656;2022-09-09T17:34:56;17.89;79.34
68257;DHT22;55069;51.568;4.656;2022-09-09T17:37:21;17.85;80.09
68257;DHT22;55069;51.568;4.656;2022-09-09T17:39:47;17.76;80.16
68257;DHT22;55069;51.568;4.656;2022-09-09T17:42:12;17.62;80.14
68257;DHT22;55069;51.568;4.656;2022-09-09T17:44:38;17.57;80.74
68257;DHT22;55069;51.568;4.656;2022-09-09T17:47:05;17.49;80.83